createdAt,value
2019-05-23T00:02:38.476Z,19.63
2019-05-23T00:05:45.678Z,19.63
2019-05-23T00:08:38.921Z,20.07
2019-05-23T00:11:32.682Z,17.27
2019-05-23T00:14:31.280Z,20.07
2019-05-23T00:17:04.900Z,18.77
2019-05-23T00:19:38.677Z,18.47
2019-05-23T00:22:12.746Z,18.53
2019-05-23T00:24:43.371Z,18.57
2019-05-23T00:27:14.512Z,21.17
2019-05-23T00:29:48.259Z,23.43
2019-05-23T00:32:28.680Z,22.03
2019-05-23T00:34:59.697Z,18.13
2019-05-23T00:37:33.046Z,19.63
2019-05-23T00:40:05.065Z,21.70
2019-05-23T00:42:36.060Z,17.23
2019-05-23T00:45:09.869Z,18.97
2019-05-23T00:47:41.745Z,17.43
2019-05-23T00:50:14.075Z,19.67
2019-05-23T00:52:47.158Z,18.57
2019-05-23T00:55:18.226Z,18.00
2019-05-23T00:57:50.674Z,18.33
2019-05-23T01:00:24.800Z,18.73
2019-05-23T01:02:56.841Z,19.97
2019-05-23T01:05:29.084Z,20.23
2019-05-23T01:08:03.040Z,19.60
2019-05-23T01:10:33.836Z,16.83
2019-05-23T01:13:05.496Z,21.23
2019-05-23T01:15:38.079Z,22.00
2019-05-23T01:18:09.796Z,21.77
2019-05-23T01:21:00.139Z,20.43
2019-05-23T01:23:34.012Z,20.30
2019-05-23T01:26:06.254Z,20.50
2019-05-23T01:28:39.496Z,17.00
2019-05-23T01:31:15.720Z,19.00
2019-05-23T01:33:49.864Z,18.47
2019-05-23T01:36:21.199Z,14.93
2019-05-23T01:38:51.762Z,17.67
2019-05-23T01:41:23.953Z,17.33
2019-05-23T01:43:56.692Z,19.67
2019-05-23T01:46:29.820Z,18.47
2019-05-23T01:49:01.233Z,16.97
2019-05-23T01:51:32.910Z,19.40
2019-05-23T01:54:05.381Z,19.20
2019-05-23T01:56:37.224Z,18.53
2019-05-23T01:59:08.531Z,14.40
2019-05-23T02:01:39.672Z,16.23
2019-05-23T02:04:11.012Z,16.13
2019-05-23T02:06:42.827Z,15.17
2019-05-23T02:09:13.795Z,14.30
2019-05-23T02:11:45.455Z,16.67
2019-05-23T02:14:16.885Z,19.13
2019-05-23T02:16:47.289Z,16.20
2019-05-23T02:19:21.330Z,14.23
2019-05-23T02:21:53.302Z,15.33
2019-05-23T02:24:26.906Z,15.20
2019-05-23T02:26:59.136Z,15.83
2019-05-23T02:29:31.168Z,14.57
2019-05-23T02:32:05.847Z,16.80
2019-05-23T02:34:37.390Z,15.77
2019-05-23T02:37:15.422Z,19.13
2019-05-23T02:40:04.749Z,14.10
2019-05-23T02:42:43.719Z,16.00
2019-05-23T02:45:19.195Z,17.47
2019-05-23T02:47:50.055Z,21.80
2019-05-23T02:50:28.690Z,17.67
2019-05-23T02:53:02.398Z,16.90
2019-05-23T02:55:37.363Z,20.63
2019-05-23T02:58:31.440Z,14.60
2019-05-23T03:01:40.787Z,20.70
2019-05-23T03:04:15.448Z,14.00
2019-05-23T03:06:48.203Z,15.53
2019-05-23T03:09:20.642Z,15.07
2019-05-23T03:11:57.460Z,14.50
2019-05-23T03:14:28.146Z,14.70
2019-05-23T03:17:02.367Z,15.17
2019-05-23T03:19:43.745Z,18.03
2019-05-23T03:22:30.944Z,17.57
2019-05-23T03:25:04.543Z,18.60
2019-05-23T03:27:41.360Z,15.73
2019-05-23T03:30:19.909Z,15.20
2019-05-23T03:32:54.813Z,21.53
2019-05-23T03:35:32.667Z,19.80
2019-05-23T03:38:04.144Z,15.53
2019-05-23T03:40:36.321Z,16.20
2019-05-23T03:43:10.345Z,15.30
2019-05-23T03:45:47.019Z,18.37
2019-05-23T03:48:20.859Z,17.73
2019-05-23T03:50:52.633Z,13.87
2019-05-23T03:53:25.432Z,18.07
2019-05-23T03:55:57.630Z,14.30
2019-05-23T03:58:29.805Z,16.20
2019-05-23T04:01:02.891Z,13.43
2019-05-23T04:03:38.969Z,16.37
2019-05-23T04:06:08.458Z,18.80
2019-05-23T04:08:40.607Z,20.50
2019-05-23T04:11:11.670Z,18.17
2019-05-23T04:13:42.446Z,19.83
2019-05-23T04:16:13.372Z,16.00
2019-05-23T04:18:46.667Z,16.30
2019-05-23T04:21:22.684Z,16.67
2019-05-23T04:23:53.703Z,17.70
2019-05-23T04:26:25.080Z,18.77
2019-05-23T04:28:55.747Z,16.67
2019-05-23T04:31:27.775Z,20.50
2019-05-23T04:34:01.122Z,21.00
2019-05-23T04:36:34.061Z,21.70
2019-05-23T04:39:06.681Z,22.93
2019-05-23T04:41:37.087Z,17.27
2019-05-23T04:44:09.097Z,16.83
2019-05-23T04:46:40.028Z,19.80
2019-05-23T04:49:10.462Z,16.20
2019-05-23T04:51:41.619Z,19.27
2019-05-23T04:54:13.953Z,18.77
2019-05-23T04:56:45.894Z,17.23
2019-05-23T04:59:17.959Z,23.23
2019-05-23T05:01:48.626Z,22.87
2019-05-23T05:04:19.946Z,22.03
2019-05-23T05:06:50.493Z,18.67
2019-05-23T05:09:25.674Z,22.83
2019-05-23T05:11:56.441Z,16.97
2019-05-23T05:14:27.738Z,20.53
2019-05-23T05:16:59.109Z,19.57
2019-05-23T05:19:31.337Z,23.00
2019-05-23T05:22:02.364Z,17.97
2019-05-23T05:24:34.079Z,19.67
2019-05-23T05:27:05.962Z,20.03
2019-05-23T05:29:36.523Z,24.17
2019-05-23T05:32:08.511Z,19.97
2019-05-23T05:34:39.297Z,19.23
2019-05-23T05:37:11.667Z,28.63
2019-05-23T05:39:42.157Z,26.17
2019-05-23T05:42:14.578Z,28.70
2019-05-23T05:44:48.426Z,30.00
2019-05-23T05:47:20.353Z,28.70
2019-05-23T05:49:53.536Z,27.23
2019-05-23T05:52:25.873Z,26.47
2019-05-23T05:54:56.661Z,25.67
2019-05-23T05:57:29.494Z,30.33
2019-05-23T06:00:00.257Z,31.00
2019-05-23T06:02:31.024Z,31.17
2019-05-23T06:05:01.342Z,30.40
2019-05-23T06:07:40.857Z,29.40
2019-05-23T06:10:15.635Z,30.07
2019-05-23T06:12:47.106Z,31.20
2019-05-23T06:15:18.009Z,26.73
2019-05-23T06:17:49.632Z,31.30
2019-05-23T06:20:22.161Z,29.27
2019-05-23T06:22:52.956Z,29.93
2019-05-23T06:25:24.349Z,33.20
2019-05-23T06:27:54.862Z,33.97
2019-05-23T06:30:26.201Z,32.97
2019-05-23T06:32:58.927Z,32.97
2019-05-23T06:35:31.625Z,29.77
2019-05-23T06:38:03.136Z,30.23
2019-05-23T06:40:35.962Z,30.80
2019-05-23T06:43:08.989Z,29.10
2019-05-23T06:45:43.541Z,26.80
2019-05-23T06:48:15.818Z,33.03
2019-05-23T06:50:46.271Z,29.83
2019-05-23T06:53:18.829Z,31.37
2019-05-23T06:55:51.618Z,29.83
2019-05-23T06:58:23.514Z,33.90
2019-05-23T07:00:55.078Z,31.57
2019-05-23T07:03:40.501Z,23.23
2019-05-23T07:05:59.613Z,26.83
2019-05-23T07:08:31.826Z,25.43
2019-05-23T07:11:03.345Z,31.40
2019-05-23T07:13:35.415Z,30.20
2019-05-23T07:16:06.436Z,27.27
2019-05-23T07:18:36.853Z,26.47
2019-05-23T07:21:09.344Z,27.37
2019-05-23T07:23:41.460Z,28.30
2019-05-23T07:26:13.123Z,29.10
2019-05-23T07:28:43.675Z,26.40
2019-05-23T07:31:14.849Z,26.27
2019-05-23T07:34:00.461Z,24.70
2019-05-23T07:36:18.483Z,22.13
2019-05-23T07:38:51.360Z,28.40
2019-05-23T07:41:23.224Z,21.03
2019-05-23T07:43:53.586Z,23.80
2019-05-23T07:46:25.692Z,25.10
2019-05-23T07:48:59.614Z,22.97
2019-05-23T07:51:33.324Z,24.53
2019-05-23T07:54:22.377Z,20.40
2019-05-23T07:56:55.515Z,18.77
2019-05-23T07:59:28.068Z,19.97
2019-05-23T08:02:14.164Z,20.70
2019-05-23T08:04:45.926Z,19.97
2019-05-23T08:07:18.898Z,17.40
2019-05-23T08:09:49.536Z,15.47
2019-05-23T08:12:20.009Z,15.83
2019-05-23T08:14:50.993Z,14.70
2019-05-23T08:17:21.952Z,17.17
2019-05-23T08:19:53.875Z,17.50
2019-05-23T08:22:25.876Z,18.43
2019-05-23T08:24:57.771Z,18.60
2019-05-23T08:27:29.194Z,18.37
2019-05-23T08:30:02.589Z,18.70
2019-05-23T08:32:35.204Z,17.20
2019-05-23T08:35:08.160Z,16.00
2019-05-23T08:37:38.688Z,14.53
2019-05-23T08:40:10.424Z,11.17
2019-05-23T08:42:42.591Z,9.83
2019-05-23T08:45:16.286Z,10.33
2019-05-23T08:47:46.745Z,13.57
2019-05-23T08:50:20.662Z,11.27
2019-05-23T08:52:51.310Z,13.03
2019-05-23T08:55:23.009Z,11.17
2019-05-23T08:57:54.629Z,12.50
2019-05-23T09:00:27.378Z,10.53
2019-05-23T09:03:00.088Z,9.70
2019-05-23T09:05:32.482Z,20.00
2019-05-23T09:08:02.830Z,11.50
2019-05-23T09:10:35.115Z,11.67
2019-05-23T09:13:10.681Z,12.70
2019-05-23T09:15:41.428Z,13.60
2019-05-23T09:18:13.700Z,9.83
2019-05-23T09:20:44.610Z,13.87
2019-05-23T09:23:16.665Z,11.27
2019-05-23T09:25:48.859Z,12.20
2019-05-23T09:28:19.707Z,11.40
2019-05-23T09:30:51.871Z,12.87
2019-05-23T09:33:22.248Z,11.77
2019-05-23T09:35:53.017Z,9.57
2019-05-23T09:38:25.318Z,9.60
2019-05-23T09:40:58.122Z,10.90
2019-05-23T09:43:28.565Z,9.27
2019-05-23T09:46:00.009Z,9.83
2019-05-23T09:48:30.600Z,9.27
2019-05-23T09:51:01.275Z,8.53
2019-05-23T09:53:33.373Z,12.40
2019-05-23T09:56:04.030Z,9.30
2019-05-23T09:58:34.810Z,13.00
2019-05-23T10:01:05.871Z,10.13
2019-05-23T10:03:36.730Z,10.93
2019-05-23T10:06:07.501Z,12.07
2019-05-23T10:08:40.186Z,8.87
2019-05-23T10:11:10.761Z,11.03
2019-05-23T10:13:42.119Z,11.47
2019-05-23T10:16:14.073Z,9.60
2019-05-23T10:18:46.987Z,10.20
2019-05-23T10:21:21.220Z,13.23
2019-05-23T10:23:54.014Z,9.80
2019-05-23T10:26:25.222Z,10.27
2019-05-23T10:28:56.894Z,13.47
2019-05-23T10:31:28.363Z,14.33
2019-05-23T10:34:00.118Z,12.70
2019-05-23T10:36:30.940Z,11.60
2019-05-23T10:39:02.662Z,12.97
2019-05-23T10:41:34.077Z,12.07
2019-05-23T10:44:04.834Z,11.07
2019-05-23T10:46:36.115Z,11.03
2019-05-23T10:49:06.484Z,14.70
2019-05-23T10:51:37.270Z,13.13
2019-05-23T10:54:07.810Z,9.43
2019-05-23T10:56:39.551Z,9.80
2019-05-23T10:59:09.919Z,10.10
2019-05-23T11:01:41.499Z,11.30
2019-05-23T11:04:16.585Z,15.20
2019-05-23T11:06:47.302Z,13.57
2019-05-23T11:09:36.223Z,10.73
2019-05-23T11:11:52.252Z,10.13
2019-05-23T11:14:24.948Z,9.03
2019-05-23T11:16:55.582Z,10.77
2019-05-23T11:19:26.036Z,9.53
2019-05-23T11:21:57.899Z,10.70
2019-05-23T11:24:29.622Z,11.57
2019-05-23T11:27:00.482Z,12.40
2019-05-23T11:29:31.632Z,8.27
2019-05-23T11:32:02.926Z,15.00
2019-05-23T11:34:35.411Z,9.97
2019-05-23T11:37:07.291Z,10.57
2019-05-23T11:39:42.150Z,11.00
2019-05-23T11:42:11.021Z,11.87
2019-05-23T11:44:43.513Z,11.90
2019-05-23T11:47:13.886Z,8.50
2019-05-23T11:49:45.304Z,11.60
2019-05-23T11:52:16.620Z,9.73
2019-05-23T11:54:47.381Z,14.13
2019-05-23T11:57:17.914Z,9.80
2019-05-23T11:59:49.394Z,9.17
2019-05-23T12:02:48.394Z,9.43
2019-05-23T12:05:24.293Z,9.73
2019-05-23T12:07:55.378Z,8.43
2019-05-23T12:10:26.102Z,11.20
2019-05-23T12:12:56.490Z,10.50
2019-05-23T12:15:28.770Z,8.20
2019-05-23T12:18:00.968Z,5.90
2019-05-23T12:20:31.368Z,6.07
2019-05-23T12:23:01.833Z,6.53
2019-05-23T12:25:33.197Z,6.70
2019-05-23T12:28:07.411Z,7.07
2019-05-23T12:30:38.350Z,9.00
2019-05-23T12:33:09.899Z,8.40
2019-05-23T12:35:40.659Z,10.30
2019-05-23T12:38:11.546Z,7.47
2019-05-23T12:40:42.005Z,10.53
2019-05-23T12:43:14.021Z,7.47
2019-05-23T12:45:45.724Z,6.60
2019-05-23T12:48:35.179Z,5.90
2019-05-23T12:51:07.545Z,5.13
2019-05-23T12:53:38.389Z,7.87
2019-05-23T12:56:08.848Z,6.73
2019-05-23T12:58:39.718Z,5.90
2019-05-23T13:01:13.470Z,5.47
2019-05-23T13:03:45.950Z,6.30
2019-05-23T13:06:16.755Z,6.10
2019-05-23T13:08:48.615Z,6.70
2019-05-23T13:11:20.454Z,7.37
2019-05-23T13:13:51.475Z,3.93
2019-05-23T13:16:24.069Z,5.80
2019-05-23T13:18:55.056Z,6.97
2019-05-23T13:21:26.893Z,7.27
2019-05-23T13:23:58.641Z,4.87
2019-05-23T13:26:30.155Z,8.53
2019-05-23T13:29:00.663Z,5.17
2019-05-23T13:31:31.584Z,5.73
2019-05-23T13:34:01.973Z,9.23
2019-05-23T13:36:33.149Z,5.37
2019-05-23T13:39:04.687Z,4.93
2019-05-23T13:41:37.418Z,4.87
2019-05-23T13:44:08.298Z,5.00
2019-05-23T13:46:38.961Z,6.63
2019-05-23T13:49:10.582Z,6.30
2019-05-23T13:51:42.671Z,5.07
2019-05-23T13:54:14.318Z,5.70
2019-05-23T13:56:47.731Z,4.40
2019-05-23T13:59:17.025Z,6.40
2019-05-23T14:01:47.387Z,5.27
2019-05-23T14:04:18.423Z,5.60
2019-05-23T14:06:48.798Z,7.53
2019-05-23T14:09:20.394Z,6.70
2019-05-23T14:12:19.607Z,8.93
2019-05-23T14:14:23.811Z,11.07
2019-05-23T14:17:12.550Z,6.40
2019-05-23T14:19:43.484Z,6.27
2019-05-23T14:22:14.104Z,5.77
2019-05-23T14:24:45.101Z,7.80
2019-05-23T14:27:23.250Z,5.03
2019-05-23T14:29:54.009Z,5.13
2019-05-23T14:32:33.766Z,5.90
2019-05-23T14:35:05.223Z,6.33
2019-05-23T14:37:48.933Z,6.40
2019-05-23T14:40:21.688Z,6.43
2019-05-23T14:43:03.403Z,5.40
2019-05-23T14:46:08.135Z,6.57
2019-05-23T14:48:49.440Z,4.20
2019-05-23T14:51:43.312Z,5.50
2019-05-23T14:54:32.645Z,4.97
2019-05-23T14:57:05.058Z,5.47
2019-05-23T14:59:37.195Z,7.60
2019-05-23T15:02:13.626Z,4.87
2019-05-23T15:08:21.379Z,5.27
2019-05-23T15:10:59.988Z,6.83
2019-05-23T15:13:33.506Z,4.13
2019-05-23T15:16:04.703Z,5.70
2019-05-23T15:18:36.285Z,4.40
2019-05-23T15:21:06.973Z,4.20
2019-05-23T15:23:37.463Z,3.50
2019-05-23T15:26:22.220Z,5.13
2019-05-23T15:28:42.248Z,3.73
2019-05-23T15:31:13.305Z,4.33
2019-05-23T15:33:45.620Z,3.30
2019-05-23T15:36:17.174Z,6.73
2019-05-23T15:38:49.687Z,5.23
2019-05-23T15:41:21.430Z,8.73
2019-05-23T15:43:52.355Z,4.93
2019-05-23T15:46:23.123Z,5.20
2019-05-23T15:48:55.232Z,4.10
2019-05-23T15:51:31.450Z,4.87
2019-05-23T15:54:20.926Z,4.73
2019-05-23T15:57:29.706Z,4.33
2019-05-23T16:00:19.140Z,3.83
2019-05-23T16:03:02.924Z,5.33
2019-05-23T16:05:35.710Z,5.03
2019-05-23T16:08:06.625Z,5.73
2019-05-23T16:10:38.090Z,7.77
2019-05-23T16:13:08.964Z,5.57
2019-05-23T16:15:39.421Z,4.53
2019-05-23T16:18:10.404Z,7.10
2019-05-23T16:20:40.782Z,6.30
2019-05-23T16:23:14.830Z,4.53
2019-05-23T16:25:47.033Z,5.10
2019-05-23T16:28:20.621Z,5.27
2019-05-23T16:30:54.853Z,3.70
2019-05-23T16:33:25.359Z,7.13
2019-05-23T16:35:55.781Z,2.43
2019-05-23T16:38:27.247Z,4.17
2019-05-23T16:40:58.431Z,7.27
2019-05-23T16:43:28.829Z,2.97
2019-05-23T16:45:59.537Z,4.10
2019-05-23T16:48:29.963Z,3.47
2019-05-23T16:51:01.498Z,3.47
2019-05-23T16:53:35.922Z,3.33
2019-05-23T16:56:12.906Z,6.37
2019-05-23T16:58:53.751Z,3.80
2019-05-23T17:01:54.903Z,6.50
2019-05-23T17:04:59.463Z,2.93
2019-05-23T17:07:57.194Z,4.00
2019-05-23T17:10:42.454Z,4.50
2019-05-23T17:13:27.955Z,9.10
2019-05-23T17:16:13.269Z,2.90
2019-05-23T17:18:51.652Z,5.03
2019-05-23T17:21:39.856Z,4.83
2019-05-23T17:24:29.880Z,3.40
2019-05-23T17:27:23.962Z,2.70
2019-05-23T17:30:00.917Z,2.60
2019-05-23T17:32:33.801Z,5.50
2019-05-23T17:35:06.286Z,5.53
2019-05-23T17:37:38.060Z,5.00
2019-05-23T17:40:23.762Z,5.40
2019-05-23T17:42:44.198Z,4.03
2019-05-23T17:45:14.996Z,3.90
2019-05-23T17:47:45.527Z,4.10
2019-05-23T17:50:17.470Z,2.27
2019-05-23T17:52:49.141Z,4.47
2019-05-23T17:55:20.490Z,3.17
2019-05-23T17:57:50.934Z,6.60
2019-05-23T18:00:26.036Z,2.60
2019-05-23T18:02:56.688Z,4.03
2019-05-23T18:05:27.809Z,3.50
2019-05-23T18:07:59.413Z,2.87
2019-05-23T18:10:43.982Z,2.57
2019-05-23T18:13:07.694Z,3.70
2019-05-23T18:15:38.638Z,5.40
2019-05-23T18:18:10.177Z,2.93
2019-05-23T18:20:41.409Z,2.10
2019-05-23T18:23:13.807Z,3.70
2019-05-23T18:25:44.641Z,3.20
2019-05-23T18:28:15.424Z,5.03
2019-05-23T18:30:53.625Z,3.23
2019-05-23T18:33:25.248Z,3.33
2019-05-23T18:35:56.140Z,2.53
2019-05-23T18:38:27.366Z,4.17
2019-05-23T18:41:03.116Z,4.13
2019-05-23T18:43:30.117Z,3.43
2019-05-23T18:46:04.037Z,4.03
2019-05-23T18:48:35.476Z,4.50
2019-05-23T18:51:06.712Z,4.93
2019-05-23T18:53:37.615Z,3.47
2019-05-23T18:56:08.345Z,2.70
2019-05-23T18:58:40.671Z,2.80
2019-05-23T19:01:19.962Z,7.77
2019-05-23T19:03:52.708Z,2.83
2019-05-23T19:06:25.591Z,5.63
2019-05-23T19:08:58.994Z,4.53
2019-05-23T19:11:32.987Z,4.00
2019-05-23T19:14:04.937Z,2.53
2019-05-23T19:16:36.316Z,2.73
2019-05-23T19:19:07.864Z,2.53
2019-05-23T19:21:39.023Z,3.00
2019-05-23T19:24:12.848Z,2.33
2019-05-23T19:26:43.624Z,3.93
2019-05-23T19:29:14.063Z,4.30
2019-05-23T19:31:44.689Z,3.87
2019-05-23T19:34:19.645Z,4.03
2019-05-23T19:36:52.350Z,4.70
2019-05-23T19:42:19.771Z,6.33
2019-05-23T19:44:50.220Z,5.70
2019-05-23T19:47:21.039Z,5.10
2019-05-23T19:49:51.757Z,9.53
2019-05-23T19:52:22.536Z,5.37
2019-05-23T19:54:53.811Z,5.07
2019-05-23T19:57:25.380Z,4.70
2019-05-23T19:59:55.786Z,3.63
2019-05-23T20:02:48.517Z,4.50
2019-05-23T20:05:24.834Z,6.73
2019-05-23T20:07:55.633Z,6.60
2019-05-23T20:10:27.195Z,10.47
2019-05-23T20:12:58.501Z,5.27
2019-05-23T20:15:31.131Z,9.63
2019-05-23T20:18:01.916Z,4.47
2019-05-23T20:20:34.714Z,6.47
2019-05-23T20:23:06.749Z,4.93
2019-05-23T20:25:38.936Z,6.23
2019-05-23T20:28:09.737Z,5.90
2019-05-23T20:30:59.720Z,6.93
2019-05-23T20:33:30.604Z,4.67
2019-05-23T20:36:03.302Z,6.70
2019-05-23T20:38:37.030Z,5.57
2019-05-23T20:41:07.774Z,5.43
2019-05-23T20:43:38.242Z,7.07
2019-05-23T20:46:09.514Z,6.07
2019-05-23T20:48:40.115Z,6.30
2019-05-23T20:51:11.111Z,5.97
2019-05-23T20:53:41.596Z,7.87
2019-05-23T20:56:12.335Z,9.33
2019-05-23T20:58:42.902Z,10.70
2019-05-23T21:01:35.108Z,6.17
2019-05-23T21:04:07.289Z,6.40
2019-05-23T21:06:37.914Z,5.43
2019-05-23T21:09:09.082Z,5.60
2019-05-23T21:11:39.805Z,9.90
2019-05-23T21:14:10.296Z,5.27
2019-05-23T21:16:40.899Z,6.07
2019-05-23T21:19:13.006Z,7.10
2019-05-23T21:21:43.486Z,6.87
2019-05-23T21:24:14.422Z,4.80
2019-05-23T21:26:45.499Z,7.10
2019-05-23T21:29:16.235Z,5.60
2019-05-23T21:31:46.891Z,9.17
2019-05-23T21:34:21.916Z,4.37
2019-05-23T21:36:52.875Z,5.90
2019-05-23T21:39:23.346Z,7.17
2019-05-23T21:41:53.825Z,5.13
2019-05-23T21:44:24.568Z,7.67
2019-05-23T21:46:55.482Z,6.57
2019-05-23T21:49:26.366Z,5.93
2019-05-23T21:51:56.817Z,4.70
2019-05-23T21:54:27.315Z,5.53
2019-05-23T21:56:57.707Z,5.87
2019-05-23T21:59:29.562Z,9.43
2019-05-23T22:02:18.603Z,4.90
2019-05-23T22:05:14.041Z,8.97
2019-05-23T22:07:47.344Z,7.77
